Salmon Creek, California
Current Conditions -  °F | °C
As of 5:40 AM on Friday 24 Oct 2014 (Local Time) from KSTS Reporting Station
Moderate Fog Moderate Fog  
Wind Chill:   Ceiling: 200
Heat Index:   Visibility: 0.5mi
Dew Point:   Wind: 0mph
Humidity: 100%   Direction: NA
Pressure: 29.95"   Gusts: NA
Location:  38.3575°N, 123.043°W
Report Text: KSTS 241240Z AUTO 00000KT 1/2SM FG VV002 09/09 A2995 RMK AO2
Loading
Personal Weather Stations






























Interactive Weather Map
Tropical Storm Tracking
New forecast layout! Learn more

10-Day Weather Forecast

Advertisements
Track Severe Weather on mobile